createdAt,value
2022-12-11T00:00:48.036Z,1.20
2022-12-11T00:03:17.096Z,1.20
2022-12-11T00:05:44.965Z,1.23
2022-12-11T00:08:12.687Z,1.48
2022-12-11T00:10:39.610Z,1.00
2022-12-11T00:13:06.806Z,2.20
2022-12-11T00:15:33.472Z,1.73
2022-12-11T00:18:00.254Z,2.60
2022-12-11T00:20:27.255Z,1.88
2022-12-11T00:22:53.995Z,2.72
2022-12-11T00:25:20.636Z,2.60
2022-12-11T00:27:47.589Z,1.38
2022-12-11T00:30:14.793Z,1.80
2022-12-11T00:32:41.510Z,1.63
2022-12-11T00:35:08.852Z,1.55
2022-12-11T00:37:35.870Z,1.23
2022-12-11T00:40:02.766Z,1.40
2022-12-11T00:42:29.428Z,1.45
2022-12-11T00:44:56.516Z,2.03
2022-12-11T00:47:23.799Z,2.72
2022-12-11T00:49:50.447Z,2.17
2022-12-11T00:52:18.185Z,1.55
2022-12-11T00:54:45.614Z,1.70
2022-12-11T00:57:12.326Z,1.65
2022-12-11T00:59:39.354Z,2.70
2022-12-11T01:02:06.153Z,2.38
2022-12-11T01:04:36.218Z,2.15
2022-12-11T01:07:03.228Z,2.63
2022-12-11T01:09:48.453Z,5.45
2022-12-11T01:12:15.145Z,1.95
2022-12-11T01:14:41.899Z,1.60
2022-12-11T01:17:08.667Z,2.83
2022-12-11T01:19:35.300Z,2.47
2022-12-11T01:22:02.013Z,3.75
2022-12-11T01:24:28.750Z,5.22
2022-12-11T01:26:55.439Z,4.43
2022-12-11T01:29:22.118Z,3.75
2022-12-11T01:31:48.783Z,3.60
2022-12-11T01:34:15.479Z,2.55
2022-12-11T01:36:42.109Z,2.25
2022-12-11T01:39:09.147Z,2.63
2022-12-11T01:41:35.827Z,2.45
2022-12-11T01:44:16.190Z,2.63
2022-12-11T01:46:43.915Z,3.28
2022-12-11T01:49:17.565Z,1.75
2022-12-11T01:51:56.710Z,2.10
2022-12-11T01:54:24.476Z,5.20
2022-12-11T01:56:55.289Z,2.67
2022-12-11T01:59:27.054Z,1.65
2022-12-11T02:01:59.549Z,1.98
2022-12-11T02:04:26.967Z,2.10
2022-12-11T02:06:53.879Z,0.90
2022-12-11T02:09:23.792Z,0.95
2022-12-11T02:12:12.244Z,2.42
2022-12-11T02:14:46.202Z,1.17
2022-12-11T02:17:12.841Z,24.80
2022-12-11T02:19:51.035Z,2.10
2022-12-11T02:22:39.749Z,2.80
2022-12-11T02:25:56.792Z,6.55
2022-12-11T02:28:48.455Z,1.58
2022-12-11T02:31:42.404Z,0.90
2022-12-11T02:34:12.227Z,0.93
2022-12-11T02:36:44.899Z,0.95
2022-12-11T02:39:14.507Z,1.25
2022-12-11T02:41:47.286Z,4.10
2022-12-11T02:44:16.880Z,2.95
2022-12-11T02:46:44.763Z,8.18
2022-12-11T02:49:13.980Z,1.05
2022-12-11T02:51:42.677Z,4.70
2022-12-11T02:54:21.946Z,1.15
2022-12-11T02:56:58.084Z,1.15
2022-12-11T02:59:32.780Z,3.38
2022-12-11T03:01:59.550Z,2.72
2022-12-11T03:04:26.589Z,1.10
2022-12-11T03:07:00.056Z,1.00
2022-12-11T03:09:28.484Z,4.47
2022-12-11T03:11:55.212Z,0.77
2022-12-11T03:14:21.932Z,0.80
2022-12-11T03:17:08.209Z,1.42
2022-12-11T03:19:39.778Z,3.55
2022-12-11T03:22:15.942Z,0.52
2022-12-11T03:25:28.514Z,1.20
2022-12-11T03:28:07.697Z,0.98
2022-12-11T03:30:36.909Z,2.95
2022-12-11T03:33:12.046Z,2.10
2022-12-11T03:38:45.397Z,4.93
2022-12-11T03:41:13.806Z,1.52
2022-12-11T03:43:41.504Z,2.80
2022-12-11T03:46:10.514Z,2.95
2022-12-11T03:48:42.521Z,2.97
2022-12-11T03:51:09.649Z,4.18
2022-12-11T03:53:38.674Z,1.20
2022-12-11T03:56:08.631Z,1.10
2022-12-11T03:58:35.842Z,1.92
2022-12-11T04:01:02.514Z,1.10
2022-12-11T04:03:29.275Z,1.60
2022-12-11T04:05:56.112Z,4.45
2022-12-11T04:08:23.976Z,35.13
2022-12-11T04:11:10.753Z,6.53
2022-12-11T04:13:38.028Z,2.50
2022-12-11T04:16:05.298Z,5.18
2022-12-11T04:18:51.106Z,1.83
2022-12-11T04:21:39.445Z,1.60
2022-12-11T04:24:16.627Z,3.30
2022-12-11T04:26:47.640Z,1.65
2022-12-11T04:29:15.065Z,1.75
2022-12-11T04:31:41.823Z,7.03
2022-12-11T04:34:08.507Z,2.40
2022-12-11T04:36:35.885Z,1.83
2022-12-11T04:39:03.512Z,1.95
2022-12-11T04:41:30.791Z,2.08
2022-12-11T04:43:57.483Z,1.55
2022-12-11T04:46:25.081Z,1.92
2022-12-11T04:48:57.370Z,1.90
2022-12-11T04:51:25.365Z,2.03
2022-12-11T04:53:52.238Z,1.88
2022-12-11T04:56:19.160Z,2.08
2022-12-11T04:58:46.430Z,2.20
2022-12-11T05:01:18.849Z,2.03
2022-12-11T05:03:51.414Z,4.32
2022-12-11T05:06:18.190Z,4.82
2022-12-11T05:08:45.647Z,5.68
2022-12-11T05:11:14.952Z,1.88
2022-12-11T05:13:42.386Z,1.83
2022-12-11T05:16:11.663Z,2.78
2022-12-11T05:18:38.706Z,1.73
2022-12-11T05:21:08.607Z,2.70
2022-12-11T05:23:35.802Z,2.00
2022-12-11T05:26:05.771Z,2.10
2022-12-11T05:28:34.805Z,2.13
2022-12-11T05:31:04.759Z,3.03
2022-12-11T05:33:32.164Z,2.33
2022-12-11T05:35:58.926Z,2.13
2022-12-11T05:38:25.843Z,5.78
2022-12-11T05:41:14.471Z,2.53
2022-12-11T05:43:42.493Z,2.75
2022-12-11T05:46:16.939Z,3.05
2022-12-11T05:48:46.226Z,3.10
2022-12-11T05:51:15.268Z,5.13
2022-12-11T05:53:43.228Z,3.75
2022-12-11T05:56:14.251Z,2.90
2022-12-11T05:58:42.766Z,6.72
2022-12-11T06:01:39.406Z,1.70
2022-12-11T06:04:07.548Z,2.00
2022-12-11T06:06:35.021Z,2.03
2022-12-11T06:09:02.133Z,1.10
2022-12-11T06:11:30.686Z,1.88
2022-12-11T06:13:57.919Z,2.97
2022-12-11T06:16:25.461Z,4.85
2022-12-11T06:18:55.840Z,3.17
2022-12-11T06:21:30.159Z,8.88
2022-12-11T06:23:59.112Z,20.17
2022-12-11T06:26:27.284Z,2.60
2022-12-11T06:28:54.270Z,4.32
2022-12-11T06:31:21.647Z,2.80
2022-12-11T06:33:48.633Z,2.22
2022-12-11T06:36:21.463Z,6.40
2022-12-11T06:38:48.698Z,2.15
2022-12-11T06:41:16.069Z,1.40
2022-12-11T06:43:43.223Z,2.83
2022-12-11T06:46:15.735Z,2.58
2022-12-11T06:48:43.593Z,2.97
2022-12-11T06:51:15.428Z,2.00
2022-12-11T06:53:42.385Z,1.90
2022-12-11T06:56:14.230Z,2.08
2022-12-11T06:58:41.891Z,5.40
2022-12-11T07:01:19.102Z,7.05
2022-12-11T07:03:46.771Z,2.28
2022-12-11T07:06:14.034Z,2.03
2022-12-11T07:08:40.836Z,1.88
2022-12-11T07:11:10.907Z,2.70
2022-12-11T07:13:37.703Z,4.75
2022-12-11T07:16:10.843Z,4.68
2022-12-11T07:18:39.399Z,4.03
2022-12-11T07:21:06.900Z,1.73
2022-12-11T07:23:34.829Z,5.93
2022-12-11T07:26:10.084Z,8.55
2022-12-11T07:28:36.978Z,8.55
2022-12-11T07:31:13.006Z,3.90
2022-12-11T07:33:40.350Z,4.53
2022-12-11T07:36:09.670Z,3.30
2022-12-11T07:38:36.761Z,3.80
2022-12-11T07:41:05.541Z,14.77
2022-12-11T07:43:33.417Z,5.03
2022-12-11T07:46:08.843Z,2.92
2022-12-11T07:48:37.012Z,14.35
2022-12-11T07:51:17.004Z,7.22
2022-12-11T07:53:45.395Z,7.07
2022-12-11T07:56:12.459Z,9.85
2022-12-11T07:58:39.752Z,2.30
2022-12-11T08:01:11.778Z,2.90
2022-12-11T08:03:38.573Z,4.05
2022-12-11T08:06:05.622Z,3.03
2022-12-11T08:08:32.361Z,6.18
2022-12-11T08:11:03.693Z,1.60
2022-12-11T08:13:30.597Z,8.23
2022-12-11T08:15:58.260Z,1.77
2022-12-11T08:18:25.276Z,29.02
2022-12-11T08:20:51.986Z,6.45
2022-12-11T08:23:18.625Z,4.35
2022-12-11T08:25:45.270Z,2.05
2022-12-11T08:28:11.921Z,1.40
2022-12-11T08:30:40.243Z,1.83
2022-12-11T08:33:07.169Z,2.25
2022-12-11T08:35:33.841Z,2.55
2022-12-11T08:38:00.433Z,4.05
2022-12-11T08:40:27.144Z,2.72
2022-12-11T08:42:53.866Z,1.92
2022-12-11T08:45:20.561Z,1.25
2022-12-11T08:47:47.353Z,1.73
2022-12-11T08:50:14.059Z,2.15
2022-12-11T08:52:40.728Z,7.63
2022-12-11T08:55:07.883Z,2.75
2022-12-11T08:57:34.632Z,2.70
2022-12-11T09:00:01.260Z,1.92
2022-12-11T09:02:27.955Z,2.50
2022-12-11T09:04:54.708Z,6.32
2022-12-11T09:07:21.339Z,5.55
2022-12-11T09:09:48.493Z,7.05
2022-12-11T09:12:15.209Z,6.18
2022-12-11T09:14:41.987Z,1.15
2022-12-11T09:17:08.985Z,1.50
2022-12-11T09:19:35.621Z,3.67
2022-12-11T09:22:02.338Z,17.48
2022-12-11T09:24:29.035Z,2.38
2022-12-11T09:26:55.866Z,2.58
2022-12-11T09:29:22.703Z,6.88
2022-12-11T09:31:49.811Z,8.52
2022-12-11T09:34:16.444Z,6.55
2022-12-11T09:36:44.347Z,4.95
2022-12-11T09:39:12.716Z,2.65
2022-12-11T09:41:46.725Z,4.38
2022-12-11T09:44:38.316Z,2.50
2022-12-11T09:47:17.721Z,3.25
2022-12-11T09:49:46.475Z,0.93
2022-12-11T09:52:37.539Z,1.73
2022-12-11T09:55:13.729Z,2.20
2022-12-11T09:57:46.604Z,3.25
2022-12-11T10:00:26.635Z,4.57
2022-12-11T10:03:08.991Z,2.88
2022-12-11T10:05:47.832Z,1.50
2022-12-11T10:08:17.256Z,1.95
2022-12-11T10:10:54.299Z,2.72
2022-12-11T10:13:45.632Z,5.68
2022-12-11T10:16:28.352Z,1.33
2022-12-11T10:18:55.658Z,1.77
2022-12-11T10:21:22.986Z,1.50
2022-12-11T10:23:58.497Z,1.67
2022-12-11T10:26:25.235Z,5.40
2022-12-11T10:28:52.137Z,1.40
2022-12-11T10:31:30.909Z,2.00
2022-12-11T10:34:08.345Z,2.40
2022-12-11T10:36:38.858Z,1.60
2022-12-11T10:39:22.433Z,1.13
2022-12-11T10:41:51.723Z,14.27
2022-12-11T10:44:30.528Z,5.50
2022-12-11T10:47:06.114Z,4.32
2022-12-11T10:49:34.928Z,1.80
2022-12-11T10:52:09.431Z,2.35
2022-12-11T10:54:48.879Z,3.40
2022-12-11T10:57:16.004Z,1.10
2022-12-11T10:59:48.142Z,1.50
2022-12-11T11:02:32.034Z,4.25
2022-12-11T11:05:01.008Z,5.15
2022-12-11T11:07:30.368Z,5.90
2022-12-11T11:10:10.201Z,3.72
2022-12-11T11:12:45.899Z,1.60
2022-12-11T11:15:17.976Z,3.45
2022-12-11T11:17:55.757Z,2.28
2022-12-11T11:20:29.232Z,5.63
2022-12-11T11:23:02.012Z,2.38
2022-12-11T11:25:31.187Z,1.55
2022-12-11T11:28:01.291Z,3.00
2022-12-11T11:30:28.360Z,1.20
2022-12-11T11:33:00.874Z,2.15
2022-12-11T11:35:31.310Z,2.25
2022-12-11T11:38:09.403Z,2.60
2022-12-11T11:40:46.776Z,4.85
2022-12-11T11:43:17.745Z,2.35
2022-12-11T11:45:51.922Z,6.63
2022-12-11T11:48:41.057Z,3.43
2022-12-11T11:51:24.904Z,3.92
2022-12-11T11:53:55.716Z,49.15
2022-12-11T11:56:28.384Z,4.78
2022-12-11T11:59:16.421Z,4.97
2022-12-11T12:01:43.877Z,8.48
2022-12-11T12:04:11.652Z,5.90
2022-12-11T12:06:57.393Z,37.30
2022-12-11T12:09:46.280Z,10.07
2022-12-11T12:12:34.360Z,7.55
2022-12-11T12:15:15.404Z,18.35
2022-12-11T12:17:55.452Z,11.00
2022-12-11T12:20:43.473Z,12.00
2022-12-11T12:23:36.977Z,1.98
2022-12-11T12:26:22.971Z,8.10
2022-12-11T12:29:32.691Z,13.07
2022-12-11T12:32:08.351Z,5.55
2022-12-11T12:35:05.722Z,12.60
2022-12-11T12:38:05.566Z,19.48
2022-12-11T12:40:39.488Z,17.30
2022-12-11T12:43:20.883Z,8.50
2022-12-11T12:46:09.196Z,35.55
2022-12-11T12:48:36.259Z,12.57
2022-12-11T12:51:04.435Z,20.50
2022-12-11T12:53:35.163Z,10.30
2022-12-11T12:56:03.545Z,26.75
2022-12-11T12:58:43.093Z,15.43
2022-12-11T13:01:14.670Z,15.77
2022-12-11T13:04:06.467Z,58.20
2022-12-11T13:06:44.511Z,43.17
2022-12-11T13:09:24.726Z,23.27
2022-12-11T13:11:55.051Z,22.15
2022-12-11T13:14:30.390Z,39.30
2022-12-11T13:17:34.747Z,29.45
2022-12-11T13:20:16.306Z,34.88
2022-12-11T13:23:05.775Z,30.05
2022-12-11T13:25:45.616Z,62.22
2022-12-11T13:28:28.749Z,48.63
2022-12-11T13:31:16.925Z,53.47
2022-12-11T13:33:53.473Z,36.35
2022-12-11T13:36:24.371Z,31.13
2022-12-11T13:39:04.691Z,38.13
2022-12-11T13:41:37.960Z,20.52
2022-12-11T13:44:07.099Z,25.45
2022-12-11T13:46:36.956Z,28.63
2022-12-11T13:49:07.021Z,23.77
2022-12-11T13:51:36.279Z,57.63
2022-12-11T13:54:05.895Z,40.70
2022-12-11T13:56:32.872Z,63.47
2022-12-11T13:58:59.688Z,56.25
2022-12-11T14:01:33.744Z,38.65
2022-12-11T14:04:06.959Z,43.33
2022-12-11T14:06:36.306Z,46.35
2022-12-11T14:09:05.252Z,30.85
2022-12-11T14:11:36.957Z,32.00
2022-12-11T14:14:07.199Z,36.05
2022-12-11T14:16:34.383Z,19.55
2022-12-11T14:19:07.971Z,17.80
2022-12-11T14:21:36.316Z,22.13
2022-12-11T14:24:06.597Z,6.00
2022-12-11T14:26:35.503Z,10.75
2022-12-11T14:29:02.991Z,8.13
2022-12-11T14:31:43.752Z,12.43
2022-12-11T14:34:24.597Z,3.70
2022-12-11T14:36:51.563Z,1.50
2022-12-11T14:39:28.949Z,4.20
2022-12-11T14:42:04.571Z,5.93
2022-12-11T14:44:39.922Z,2.70
2022-12-11T14:47:16.784Z,3.08
2022-12-11T14:50:03.395Z,12.32
2022-12-11T14:52:44.290Z,5.88
2022-12-11T14:55:22.019Z,12.23
2022-12-11T14:57:52.956Z,6.63
2022-12-11T15:00:23.097Z,9.25
2022-12-11T15:03:02.023Z,23.95
2022-12-11T15:05:29.734Z,14.27
2022-12-11T15:08:02.475Z,5.18
2022-12-11T15:10:41.274Z,6.43
2022-12-11T15:13:09.611Z,3.22
2022-12-11T15:15:47.713Z,17.45
2022-12-11T15:18:23.351Z,31.90
2022-12-11T15:20:56.311Z,40.15
2022-12-11T15:23:22.995Z,19.17
2022-12-11T15:25:56.075Z,8.32
2022-12-11T15:28:26.972Z,3.50
2022-12-11T15:31:05.918Z,9.75
2022-12-11T15:33:34.705Z,13.82
2022-12-11T15:36:07.232Z,4.28
2022-12-11T15:38:37.730Z,9.60
2022-12-11T15:41:05.578Z,7.95
2022-12-11T15:43:36.544Z,14.82
2022-12-11T15:46:04.978Z,17.60
2022-12-11T15:48:31.887Z,11.93
2022-12-11T15:50:58.768Z,14.27
2022-12-11T15:53:25.648Z,14.85
2022-12-11T15:55:53.128Z,19.88
2022-12-11T15:58:24.260Z,18.25
2022-12-11T16:00:51.655Z,20.13
2022-12-11T16:03:19.639Z,17.02
2022-12-11T16:05:46.812Z,19.27
2022-12-11T16:08:15.772Z,26.65
2022-12-11T16:10:43.635Z,26.20
2022-12-11T16:13:14.536Z,23.58
2022-12-11T16:15:44.064Z,21.83
2022-12-11T16:18:13.437Z,17.50
2022-12-11T16:20:42.230Z,19.35
2022-12-11T16:23:10.224Z,17.77
2022-12-11T16:25:39.520Z,17.98
2022-12-11T16:28:07.209Z,39.45
2022-12-11T16:30:36.676Z,41.60
2022-12-11T16:33:11.751Z,63.17
2022-12-11T16:35:39.551Z,64.40
2022-12-11T16:38:06.327Z,65.65
2022-12-11T16:40:33.011Z,69.07
2022-12-11T16:42:59.681Z,66.32
2022-12-11T16:45:27.366Z,54.95
2022-12-11T16:47:54.843Z,65.85
2022-12-11T16:50:24.236Z,60.10
2022-12-11T16:52:50.945Z,69.45
2022-12-11T16:55:21.236Z,54.67
2022-12-11T16:57:48.439Z,113.90
2022-12-11T17:00:15.969Z,59.05
2022-12-11T17:02:42.759Z,68.47
2022-12-11T17:05:10.224Z,69.88
2022-12-11T17:07:37.753Z,17.48
2022-12-11T17:10:05.003Z,42.67
2022-12-11T17:12:31.816Z,68.00
2022-12-11T17:14:58.542Z,69.63
2022-12-11T17:17:25.622Z,73.60
2022-12-11T17:19:52.458Z,52.92
2022-12-11T17:22:19.271Z,40.35
2022-12-11T17:24:45.956Z,40.63
2022-12-11T17:27:14.025Z,27.75
2022-12-11T17:29:40.820Z,13.95
2022-12-11T17:32:07.821Z,11.98
2022-12-11T17:34:38.414Z,40.40
2022-12-11T17:37:11.309Z,22.00
2022-12-11T17:39:38.136Z,9.13
2022-12-11T17:42:04.883Z,2.50
2022-12-11T17:44:31.657Z,1.30
2022-12-11T17:46:59.116Z,0.63
2022-12-11T17:49:26.433Z,3.13
2022-12-11T17:51:55.504Z,7.72
2022-12-11T17:54:23.696Z,1.70
2022-12-11T17:56:50.753Z,2.15
2022-12-11T17:59:18.161Z,4.68
2022-12-11T18:01:44.959Z,4.78
2022-12-11T18:04:13.004Z,7.38
2022-12-11T18:06:39.816Z,18.90
2022-12-11T18:09:07.225Z,2.22
2022-12-11T18:11:34.907Z,8.05
2022-12-11T18:14:02.095Z,5.85
2022-12-11T18:16:32.084Z,8.45
2022-12-11T18:18:59.185Z,10.82
2022-12-11T18:21:30.994Z,8.80
2022-12-11T18:23:58.108Z,11.68
2022-12-11T18:26:25.446Z,17.30
2022-12-11T18:28:53.430Z,14.60
2022-12-11T18:31:22.009Z,22.52
2022-12-11T18:33:49.212Z,16.83
2022-12-11T18:36:17.841Z,25.40
2022-12-11T18:38:45.394Z,39.88
2022-12-11T18:41:13.500Z,41.47
2022-12-11T18:43:40.984Z,48.10
2022-12-11T18:46:15.973Z,58.38
2022-12-11T18:51:12.193Z,36.78
2022-12-11T18:53:39.676Z,57.13
2022-12-11T18:56:09.903Z,54.25
2022-12-11T18:58:37.097Z,61.72
2022-12-11T19:01:14.154Z,24.08
2022-12-11T19:03:41.394Z,23.98
2022-12-11T19:06:10.024Z,22.63
2022-12-11T19:08:37.164Z,7.38
2022-12-11T19:11:04.467Z,19.20
2022-12-11T19:13:31.378Z,22.10
2022-12-11T19:15:58.156Z,28.45
2022-12-11T19:18:26.848Z,26.45
2022-12-11T19:21:03.277Z,31.95
2022-12-11T19:23:33.305Z,34.55
2022-12-11T19:26:00.026Z,31.50
2022-12-11T19:28:26.807Z,29.50
2022-12-11T19:30:53.501Z,33.17
2022-12-11T19:33:20.181Z,16.75
2022-12-11T19:35:47.045Z,21.27
2022-12-11T19:38:14.029Z,54.78
2022-12-11T19:40:43.239Z,43.10
2022-12-11T19:43:10.856Z,42.85
2022-12-11T19:45:37.644Z,36.13
2022-12-11T19:48:05.236Z,58.08
2022-12-11T19:50:31.868Z,22.70
2022-12-11T19:52:58.621Z,36.50
2022-12-11T19:55:25.822Z,43.65
2022-12-11T19:57:52.519Z,38.05
2022-12-11T20:00:20.310Z,27.38
2022-12-11T20:02:49.078Z,25.17
2022-12-11T20:05:16.120Z,26.35
2022-12-11T20:07:44.715Z,62.90
2022-12-11T20:10:11.595Z,49.55
2022-12-11T20:12:38.581Z,51.25
2022-12-11T20:15:06.201Z,47.33
2022-12-11T20:17:33.665Z,57.55
2022-12-11T20:20:00.624Z,83.32
2022-12-11T20:22:27.544Z,70.60
2022-12-11T20:24:54.620Z,85.65
2022-12-11T20:27:21.335Z,57.78
2022-12-11T20:29:48.051Z,46.47
2022-12-11T20:32:14.790Z,76.43
2022-12-11T20:34:41.505Z,54.38
2022-12-11T20:37:08.280Z,55.83
2022-12-11T20:39:35.667Z,51.85
2022-12-11T20:42:04.987Z,54.28
2022-12-11T20:44:32.340Z,48.22
2022-12-11T20:46:59.514Z,66.63
2022-12-11T20:49:26.378Z,57.75
2022-12-11T20:51:53.753Z,54.08
2022-12-11T20:54:20.934Z,49.17
2022-12-11T20:56:47.739Z,47.22
2022-12-11T20:59:14.467Z,42.70
2022-12-11T21:01:41.507Z,46.50
2022-12-11T21:04:08.651Z,55.75
2022-12-11T21:06:37.630Z,37.17
2022-12-11T21:09:17.768Z,27.50
2022-12-11T21:11:44.519Z,36.83
2022-12-11T21:14:11.238Z,36.85
2022-12-11T21:16:38.098Z,33.50
2022-12-11T21:19:05.854Z,38.22
2022-12-11T21:21:36.898Z,43.75
2022-12-11T21:24:03.898Z,50.17
2022-12-11T21:26:30.934Z,38.08
2022-12-11T21:28:57.695Z,24.30
2022-12-11T21:31:24.898Z,19.25
2022-12-11T21:33:51.730Z,23.75
2022-12-11T21:36:18.503Z,32.95
2022-12-11T21:38:46.516Z,29.80
2022-12-11T21:41:15.721Z,29.63
2022-12-11T21:44:14.633Z,23.73
2022-12-11T21:46:31.161Z,28.58
2022-12-11T21:48:58.017Z,23.55
2022-12-11T21:51:32.563Z,21.25
2022-12-11T21:54:05.406Z,23.17
2022-12-11T21:56:32.551Z,16.50
2022-12-11T21:59:01.423Z,16.30
2022-12-11T22:01:32.418Z,20.88
2022-12-11T22:03:59.625Z,29.73
2022-12-11T22:06:26.316Z,26.10
2022-12-11T22:08:53.324Z,27.55
2022-12-11T22:11:23.560Z,32.80
2022-12-11T22:13:50.263Z,29.30
2022-12-11T22:16:17.137Z,25.90
2022-12-11T22:18:44.142Z,27.67
2022-12-11T22:21:10.924Z,21.55
2022-12-11T22:23:39.682Z,24.73
2022-12-11T22:26:07.183Z,25.95
2022-12-11T22:28:34.228Z,27.42
2022-12-11T22:31:15.224Z,30.40
2022-12-11T22:33:42.143Z,29.20
2022-12-11T22:36:10.771Z,18.38
2022-12-11T22:38:38.435Z,17.95
2022-12-11T22:41:24.854Z,19.80
2022-12-11T22:43:52.064Z,23.38
2022-12-11T22:46:20.680Z,32.58
2022-12-11T22:48:47.668Z,35.05
2022-12-11T22:51:15.783Z,24.08
2022-12-11T22:53:42.598Z,20.45
2022-12-11T22:56:11.674Z,26.10
2022-12-11T22:58:38.799Z,20.50
2022-12-11T23:01:17.597Z,14.52
2022-12-11T23:03:44.392Z,14.05
2022-12-11T23:06:13.467Z,11.20
2022-12-11T23:08:41.813Z,12.80
2022-12-11T23:11:22.204Z,10.10
2022-12-11T23:13:48.932Z,10.02
2022-12-11T23:16:15.651Z,10.77
2022-12-11T23:18:43.230Z,10.65
2022-12-11T23:21:11.183Z,13.50
2022-12-11T23:23:38.284Z,11.13
2022-12-11T23:26:06.639Z,15.35
2022-12-11T23:28:33.408Z,14.95
2022-12-11T23:31:00.570Z,18.30
2022-12-11T23:33:27.377Z,20.98
2022-12-11T23:35:54.104Z,37.47
2022-12-11T23:38:21.075Z,28.38
2022-12-11T23:40:48.501Z,27.13
2022-12-11T23:43:15.265Z,25.90
2022-12-11T23:45:45.466Z,27.95
2022-12-11T23:48:13.750Z,31.20
2022-12-11T23:50:42.359Z,33.20
2022-12-11T23:53:09.465Z,28.60
2022-12-11T23:55:37.954Z,23.95
2022-12-11T23:58:04.595Z,24.13
